Time;durP1;ratioP1;P1;durP2;ratioP2;P2;SDS_P1;SDS_P2;PMS_P1;PMS_P2;Temp;Humidity;BMP_temperature;BMP_pressure;BME280_temperature;BME280_humidity;BME280_pressure;Samples;Min_cycle;Max_cycle;Signal;HPM_P1;HPM_P2
2021/09/13 00:00:35;;;;;;;6.60;4.03;;;;;;;14.69;84.34;101734.44;5036935;28;20199;-78
2021/09/13 00:03:02;;;;;;;5.20;3.63;;;;;;;14.66;84.07;101732.69;5036175;28;20714;-78
2021/09/13 00:05:27;;;;;;;6.13;3.70;;;;;;;14.69;83.88;101739.59;5037935;28;20193;-78
2021/09/13 00:07:54;;;;;;;4.43;3.73;;;;;;;14.71;84.37;101733.63;5045830;28;20186;-78
2021/09/13 00:10:19;;;;;;;5.37;3.27;;;;;;;14.74;84.07;101736.22;5056430;28;20212;-77
2021/09/13 00:12:45;;;;;;;4.40;3.50;;;;;;;14.72;83.87;101727.63;5055145;28;20714;-77
2021/09/13 00:15:11;;;;;;;5.53;3.27;;;;;;;14.72;84.52;101734.47;5055043;28;20192;-78
2021/09/13 00:17:39;;;;;;;9.03;4.17;;;;;;;14.74;83.70;101735.38;5057006;28;20201;-78
2021/09/13 00:20:07;;;;;;;5.60;3.37;;;;;;;14.72;84.50;101735.34;5056484;28;20693;-78
2021/09/13 00:22:32;;;;;;;7.70;3.73;;;;;;;14.72;83.86;101730.19;5056836;28;20308;-78
2021/09/13 00:24:58;;;;;;;5.70;3.47;;;;;;;14.68;83.51;101732.72;5056848;28;20234;-77
2021/09/13 00:27:23;;;;;;;5.00;3.47;;;;;;;14.63;83.74;101729.16;5058333;28;20178;-79
2021/09/13 00:29:50;;;;;;;6.60;4.20;;;;;;;14.63;84.06;101734.31;5055903;28;20190;-78
2021/09/13 00:32:17;;;;;;;5.33;3.90;;;;;;;14.62;84.34;101732.59;5055012;28;20201;-79
2021/09/13 00:34:42;;;;;;;7.70;3.90;;;;;;;14.62;84.47;101740.31;5056772;28;20190;-77
2021/09/13 00:37:10;;;;;;;5.33;3.27;;;;;;;14.65;83.90;101732.66;5056459;28;20194;-77
2021/09/13 00:39:36;;;;;;;5.90;3.40;;;;;;;14.62;84.75;101735.16;5040862;28;20562;-78
2021/09/13 00:42:04;;;;;;;7.70;3.70;;;;;;;14.64;85.01;101726.63;5055568;28;20265;-78
2021/09/13 00:44:30;;;;;;;7.33;3.30;;;;;;;14.71;84.79;101731.03;5044540;28;20194;-78
2021/09/13 00:46:56;;;;;;;6.90;3.13;;;;;;;14.73;85.04;101725.91;5036362;28;20212;-77
2021/09/13 00:49:22;;;;;;;8.93;3.57;;;;;;;14.75;84.89;101725.09;5036114;28;20269;-78
2021/09/13 00:51:48;;;;;;;7.53;3.27;;;;;;;14.76;85.20;101726.84;5035691;28;20488;-78
2021/09/13 00:54:14;;;;;;;4.77;3.07;;;;;;;14.78;85.31;101722.56;5017038;28;20179;-76
2021/09/13 00:56:42;;;;;;;7.67;3.80;;;;;;;14.78;85.11;101721.72;5035847;28;20647;-78
2021/09/13 00:59:08;;;;;;;6.97;3.00;;;;;;;14.80;85.00;101720.00;5032591;28;20194;-77
2021/09/13 01:01:33;;;;;;;7.93;3.30;;;;;;;14.82;84.82;101724.34;5034583;28;20194;-77
2021/09/13 01:03:58;;;;;;;7.90;3.70;;;;;;;14.85;85.04;101718.38;5032687;28;20233;-77
2021/09/13 01:06:24;;;;;;;5.73;3.30;;;;;;;14.87;85.08;101719.28;5035040;28;20237;-78
2021/09/13 01:08:50;;;;;;;8.10;3.20;;;;;;;14.91;85.31;101718.50;5034330;28;20175;-77
2021/09/13 01:11:16;;;;;;;4.63;3.13;;;;;;;14.96;85.00;101714.25;5034768;28;20211;-78
2021/09/13 01:13:41;;;;;;;8.23;3.63;;;;;;;14.96;84.98;101715.13;5033343;28;20598;-76
2021/09/13 01:16:07;;;;;;;6.77;3.90;;;;;;;14.97;84.57;101718.56;5032251;28;20186;-77
2021/09/13 01:18:33;;;;;;;8.23;3.70;;;;;;;15.01;84.43;101720.34;5033271;28;20261;-76
2021/09/13 01:20:59;;;;;;;5.43;3.40;;;;;;;15.01;84.75;101721.22;5032588;28;20222;-77
2021/09/13 01:23:33;;;;;;;7.20;3.70;;;;;;;15.04;85.06;101725.53;5034704;28;20218;-77
2021/09/13 01:26:10;;;;;;;7.57;3.23;;;;;;;15.04;84.77;101718.69;5032792;28;20179;-78
2021/09/13 01:28:37;;;;;;;6.43;3.50;;;;;;;15.09;85.00;101723.91;5033789;28;20601;-77
2021/09/13 01:31:05;;;;;;;6.70;3.70;;;;;;;15.11;84.94;101722.22;5033142;28;20244;-76
2021/09/13 01:33:33;;;;;;;8.90;4.10;;;;;;;15.13;85.29;101724.00;5033579;28;20194;-77
2021/09/13 01:35:59;;;;;;;5.73;4.07;;;;;;;15.16;84.93;101715.44;5016448;28;20190;-76
2021/09/13 01:38:29;;;;;;;6.33;3.80;;;;;;;15.14;85.12;101717.13;5033295;28;20186;-77
2021/09/13 01:40:55;;;;;;;10.03;4.20;;;;;;;15.15;85.46;101724.88;5016964;28;20207;-78
2021/09/13 01:43:20;;;;;;;7.57;3.80;;;;;;;15.17;84.41;101723.19;5032952;28;20222;-77
2021/09/13 01:45:46;;;;;;;7.33;3.90;;;;;;;15.16;84.81;101723.16;5035683;28;20663;-78
2021/09/13 01:48:12;;;;;;;8.37;4.30;;;;;;;15.14;84.82;101717.97;5035244;28;20183;-78
2021/09/13 01:50:38;;;;;;;8.70;4.40;;;;;;;15.14;84.93;101727.44;5018346;28;20721;-76
2021/09/13 01:53:03;;;;;;;10.13;4.13;;;;;;;15.15;84.55;101726.59;5032638;28;20183;-77
2021/09/13 01:55:29;;;;;;;6.47;4.00;;;;;;;15.18;84.17;101721.47;5015302;28;20218;-77
2021/09/13 01:57:57;;;;;;;6.43;4.50;;;;;;;15.20;84.93;101730.97;5030066;28;20182;-76
2021/09/13 02:00:24;;;;;;;7.17;4.13;;;;;;;15.20;84.99;101730.13;5029692;28;20237;-77
2021/09/13 02:02:50;;;;;;;7.37;4.53;;;;;;;15.22;85.02;101726.72;5030767;28;20293;-76
2021/09/13 02:05:26;;;;;;;11.37;5.53;;;;;;;15.25;85.08;101725.88;5030852;28;20183;-77
2021/09/13 02:07:54;;;;;;;6.37;4.07;;;;;;;15.26;84.76;101733.66;5030695;28;20206;-76
2021/09/13 02:10:21;;;;;;;8.07;5.30;;;;;;;15.27;85.18;101727.63;5031677;28;20206;-77
2021/09/13 02:12:46;;;;;;;6.80;5.07;;;;;;;15.28;85.15;101725.94;5017614;28;20568;-77
2021/09/13 02:15:13;;;;;;;11.93;5.53;;;;;;;15.29;84.99;101727.66;5036274;28;20186;-77
2021/09/13 02:17:38;;;;;;;7.33;5.60;;;;;;;15.28;85.48;101731.94;5036232;28;20217;-77
2021/09/13 02:20:08;;;;;;;6.03;5.00;;;;;;;15.31;85.09;101729.41;5015718;28;20198;-77
2021/09/13 02:22:34;;;;;;;7.50;6.00;;;;;;;15.29;85.27;101727.66;5031558;28;20218;-77
2021/09/13 02:25:00;;;;;;;10.13;5.80;;;;;;;15.33;85.17;101732.88;5032195;28;20210;-78
2021/09/13 02:27:26;;;;;;;7.57;6.43;;;;;;;15.33;85.46;101740.63;5015119;28;20551;-77
2021/09/13 02:29:52;;;;;;;12.07;6.60;;;;;;;15.35;85.34;101730.34;5031106;28;20190;-77
2021/09/13 02:32:17;;;;;;;7.67;6.70;;;;;;;15.35;85.12;101740.69;5031597;28;20301;-78
2021/09/13 02:34:42;;;;;;;7.17;6.47;;;;;;;15.37;85.48;101741.59;5031833;28;20179;-78
2021/09/13 02:37:08;;;;;;;9.30;7.57;;;;;;;15.38;85.35;101743.31;5031431;28;20190;-77
2021/09/13 02:39:35;;;;;;;14.83;7.73;;;;;;;15.41;85.15;101744.22;5016927;28;20213;-78
2021/09/13 02:42:00;;;;;;;10.27;7.57;;;;;;;15.44;85.40;101743.41;5032908;28;20218;-78
2021/09/13 02:44:25;;;;;;;12.03;8.37;;;;;;;15.45;84.97;101746.00;5032966;28;20625;-78
2021/09/13 02:46:51;;;;;;;9.53;7.60;;;;;;;15.47;85.30;101743.44;5032015;28;20277;-77
2021/09/13 02:49:17;;;;;;;9.83;7.73;;;;;;;15.48;85.26;101747.75;5033751;28;20209;-78
2021/09/13 02:51:42;;;;;;;10.23;7.83;;;;;;;15.50;85.40;101749.50;5033587;28;20661;-77
2021/09/13 02:54:08;;;;;;;13.70;9.00;;;;;;;15.49;85.33;101750.38;5034082;28;20284;-76
2021/09/13 02:56:36;;;;;;;14.90;9.00;;;;;;;15.51;85.40;101756.41;5033879;28;20193;-77
2021/09/13 02:59:01;;;;;;;10.33;9.33;;;;;;;15.51;84.98;101756.41;5033266;28;20186;-77
2021/09/13 03:01:27;;;;;;;13.30;8.83;;;;;;;15.50;85.41;101762.44;5033907;28;20304;-78
2021/09/13 03:03:52;;;;;;;12.77;9.03;;;;;;;15.52;85.29;101768.47;5034187;28;20213;-77
2021/09/13 03:06:17;;;;;;;12.17;9.43;;;;;;;15.52;85.44;101765.03;5034424;28;20853;-78
2021/09/13 03:08:43;;;;;;;13.33;9.70;;;;;;;15.49;85.56;101768.44;5017104;28;20659;-77
2021/09/13 03:11:09;;;;;;;11.43;9.50;;;;;;;15.49;85.22;101767.56;5034934;28;20706;-77
2021/09/13 03:13:36;;;;;;;12.73;10.50;;;;;;;15.46;85.59;101770.09;5017270;28;20185;-78
2021/09/13 03:16:01;;;;;;;14.47;10.23;;;;;;;15.43;85.14;101768.31;5032019;28;20187;-77
2021/09/13 03:18:26;;;;;;;14.20;11.07;;;;;;;15.43;85.22;101775.22;5032393;28;20552;-77
2021/09/13 03:20:52;;;;;;;12.67;10.73;;;;;;;15.43;85.69;101772.66;5015537;28;20588;-77
2021/09/13 03:23:17;;;;;;;14.10;10.70;;;;;;;15.44;85.59;101770.09;5033571;28;20576;-77
2021/09/13 03:25:43;;;;;;;16.17;11.00;;;;;;;15.44;85.54;101774.38;5036550;28;20826;-77
2021/09/13 03:28:08;;;;;;;13.10;11.00;;;;;;;15.45;85.30;101776.09;5036311;28;20256;-76
2021/09/13 03:30:36;;;;;;;13.00;10.60;;;;;;;15.46;85.57;101778.72;5035547;28;20198;-77
2021/09/13 03:33:02;;;;;;;13.93;10.87;;;;;;;15.48;85.54;101776.16;5035389;28;20186;-77
2021/09/13 03:35:27;;;;;;;14.97;10.80;;;;;;;15.48;85.52;101771.84;5034870;28;20782;-77
2021/09/13 03:37:53;;;;;;;12.27;11.00;;;;;;;15.47;85.95;101771.84;5035364;28;20209;-77
2021/09/13 03:40:18;;;;;;;14.87;11.17;;;;;;;15.47;86.47;101777.84;5034818;28;20198;-77
2021/09/13 03:42:44;;;;;;;16.40;11.93;;;;;;;15.45;86.12;101774.41;5034185;28;20215;-77
2021/09/13 03:45:10;;;;;;;14.07;11.40;;;;;;;15.46;86.50;101775.25;5034831;28;20232;-77
2021/09/13 03:47:54;;;;;;;14.60;12.43;;;;;;;15.47;86.57;101779.59;5034372;28;20280;-77
2021/09/13 03:50:19;;;;;;;14.03;12.13;;;;;;;15.47;85.94;101774.44;5034168;28;20644;-77
2021/09/13 03:52:48;;;;;;;16.43;12.93;;;;;;;15.45;86.32;101773.53;5034015;28;20794;-77
2021/09/13 03:55:14;;;;;;;15.93;13.77;;;;;;;15.43;86.61;101772.66;5034539;28;20232;-77
2021/09/13 03:57:40;;;;;;;16.83;12.87;;;;;;;15.45;86.84;101776.97;5034986;28;20187;-77
2021/09/13 04:00:06;;;;;;;17.47;13.20;;;;;;;15.44;86.86;101772.66;5038637;28;20193;-77
2021/09/13 04:02:42;;;;;;;17.00;13.20;;;;;;;15.46;86.24;101775.25;5034401;28;20211;-77
2021/09/13 04:05:09;;;;;;;17.17;13.40;;;;;;;15.46;86.47;101764.91;5032814;28;20190;-77
2021/09/13 04:10:45;;;;;;;16.20;13.17;;;;;;;15.46;86.72;101770.97;5009631;28;20214;-75
2021/09/13 04:13:39;;;;;;;18.70;13.83;;;;;;;15.38;87.78;101764.81;4979123;28;20220;-76
2021/09/13 04:16:14;;;;;;;14.90;13.40;;;;;;;15.38;86.95;101763.97;5033814;28;20174;-77
2021/09/13 04:19:09;;;;;;;17.80;14.03;;;;;;;15.36;86.89;101770.81;5032870;28;20191;-77
2021/09/13 04:21:50;;;;;;;18.20;13.57;;;;;;;15.37;86.25;101763.09;5033388;28;20221;-78
2021/09/13 04:24:51;;;;;;;17.53;12.93;;;;;;;15.37;86.49;101770.84;5023598;28;20806;-78
2021/09/13 04:27:31;;;;;;;16.33;13.60;;;;;;;15.37;86.86;101765.66;5018342;28;20213;-78
2021/09/13 04:30:13;;;;;;;16.47;13.10;;;;;;;15.36;86.42;101760.47;5019588;28;20894;-77
2021/09/13 04:32:57;;;;;;;15.13;12.67;;;;;;;15.33;86.70;101761.28;5035629;28;20705;-78
2021/09/13 04:35:56;;;;;;;14.23;12.73;;;;;;;15.32;86.54;101768.97;5032096;28;20194;-78
2021/09/13 04:38:35;;;;;;;17.83;13.40;;;;;;;15.31;86.27;101764.69;5034821;28;20186;-77
2021/09/13 04:41:18;;;;;;;21.10;12.57;;;;;;;15.29;86.59;101753.47;5033980;28;20221;-77
2021/09/13 04:44:18;;;;;;;14.60;13.10;;;;;;;15.27;86.29;101765.47;5022673;28;20245;-77
2021/09/13 04:47:03;;;;;;;17.57;12.90;;;;;;;15.22;86.54;101760.25;5014188;28;20199;-77
2021/09/13 04:49:47;;;;;;;17.53;12.77;;;;;;;15.18;87.09;101762.75;5014908;28;20187;-78
2021/09/13 04:52:38;;;;;;;19.53;12.83;;;;;;;15.18;86.62;101763.63;5011305;28;20301;-77
2021/09/13 04:55:06;;;;;;;20.77;13.53;;;;;;;15.23;86.97;101758.53;5014408;28;20184;-77
2021/09/13 04:57:31;;;;;;;15.43;12.03;;;;;;;15.28;87.03;101767.22;5013172;28;20180;-77
2021/09/13 04:59:57;;;;;;;15.80;11.97;;;;;;;15.27;86.52;101761.19;5013760;28;20705;-78
2021/09/13 05:02:22;;;;;;;17.80;12.63;;;;;;;15.26;86.50;101769.78;5013959;28;20680;-77
2021/09/13 05:04:48;;;;;;;19.63;13.50;;;;;;;15.22;86.50;101768.00;5014221;28;20194;-78
2021/09/13 05:07:14;;;;;;;18.83;13.13;;;;;;;15.27;86.86;101774.09;5012029;28;20195;-77
2021/09/13 05:09:39;;;;;;;14.97;12.17;;;;;;;15.30;86.20;101773.28;5012125;28;20362;-77
2021/09/13 05:12:06;;;;;;;19.60;12.13;;;;;;;15.28;86.28;101768.06;5012531;28;20734;-77
2021/09/13 05:14:31;;;;;;;14.90;12.30;;;;;;;15.31;85.84;101777.56;5017448;28;20207;-77
2021/09/13 05:16:57;;;;;;;15.67;12.00;;;;;;;15.31;85.97;101781.03;5030698;28;20178;-76
2021/09/13 05:19:26;;;;;;;17.03;12.07;;;;;;;15.32;86.04;101784.47;5013511;28;20207;-76
2021/09/13 05:21:51;;;;;;;14.97;12.53;;;;;;;15.34;85.96;101783.69;5014879;28;20305;-77
2021/09/13 05:24:18;;;;;;;16.93;12.07;;;;;;;15.35;85.48;101788.03;5031596;28;20561;-77
2021/09/13 05:26:47;;;;;;;17.47;12.17;;;;;;;15.36;86.01;101787.16;5031460;28;20187;-77
2021/09/13 05:29:12;;;;;;;17.00;12.67;;;;;;;15.42;85.92;101784.66;5031612;28;20240;-77
2021/09/13 05:31:38;;;;;;;15.07;12.03;;;;;;;15.43;85.54;101791.56;5031937;28;20202;-77
2021/09/13 05:34:05;;;;;;;14.80;11.40;;;;;;;15.44;85.73;101788.16;5031882;28;20297;-77
2021/09/13 05:36:30;;;;;;;19.93;12.50;;;;;;;15.42;86.40;101792.41;5032277;28;20277;-77
2021/09/13 05:38:56;;;;;;;15.00;11.33;;;;;;;15.49;86.06;101801.13;5031891;28;20277;-77
2021/09/13 05:41:45;;;;;;;16.27;12.50;;;;;;;15.50;85.82;101802.84;5031267;28;20210;-77
2021/09/13 05:44:11;;;;;;;15.47;10.93;;;;;;;15.54;86.03;101800.34;5031402;28;20178;-77
2021/09/13 05:46:36;;;;;;;15.30;12.00;;;;;;;15.53;86.39;101805.50;5030070;28;20189;-77
2021/09/13 05:49:02;;;;;;;16.00;11.60;;;;;;;15.59;86.24;101808.16;5031032;28;20285;-77
2021/09/13 05:51:27;;;;;;;13.60;11.33;;;;;;;15.60;86.15;101805.59;5031674;28;20241;-77
2021/09/13 05:53:53;;;;;;;16.67;11.30;;;;;;;15.66;86.05;101812.56;5030941;28;20214;-76
2021/09/13 05:56:18;;;;;;;13.83;10.77;;;;;;;15.68;86.03;101813.44;5030890;28;20198;-76
2021/09/13 05:58:43;;;;;;;14.73;10.60;;;;;;;15.72;85.46;101810.06;5031225;28;20182;-76
2021/09/13 06:01:10;;;;;;;14.07;10.70;;;;;;;15.75;85.71;101807.53;5030529;28;20244;-76
2021/09/13 06:03:35;;;;;;;16.23;11.20;;;;;;;15.77;86.06;101816.16;5030752;28;20182;-77
2021/09/13 06:06:13;;;;;;;15.80;10.80;;;;;;;15.84;85.76;101818.00;5030919;28;20183;-77
2021/09/13 06:08:39;;;;;;;13.63;10.53;;;;;;;15.84;85.37;101816.25;5030514;28;20656;-77
2021/09/13 06:11:05;;;;;;;18.43;10.80;;;;;;;15.91;85.80;101814.63;5030865;28;20206;-76
2021/09/13 06:13:31;;;;;;;13.83;10.67;;;;;;;15.96;85.27;101828.47;5030795;28;20234;-77
2021/09/13 06:15:56;;;;;;;14.40;10.17;;;;;;;15.92;85.03;101819.81;5030685;28;21053;-77
2021/09/13 06:18:22;;;;;;;16.17;11.00;;;;;;;15.87;85.11;101812.84;5030279;28;20186;-77
2021/09/13 06:20:48;;;;;;;12.20;9.53;;;;;;;15.95;85.10;101817.28;5030564;28;20586;-77
2021/09/13 06:23:14;;;;;;;14.50;10.73;;;;;;;15.90;85.39;101829.28;5030425;28;20225;-77
2021/09/13 06:25:40;;;;;;;14.57;10.50;;;;;;;16.00;84.30;101825.09;5032670;28;20182;-76
2021/09/13 06:28:05;;;;;;;13.87;11.17;;;;;;;15.99;84.77;101831.13;5031833;28;20186;-77
2021/09/13 06:30:32;;;;;;;15.27;10.07;;;;;;;16.04;84.24;101832.91;5029424;28;20257;-76
2021/09/13 06:33:00;;;;;;;15.23;10.43;;;;;;;16.08;84.27;101834.69;5029710;28;20229;-77
2021/09/13 06:35:29;;;;;;;17.07;10.93;;;;;;;16.19;83.85;101827.94;5029530;28;20186;-76
2021/09/13 06:38:02;;;;;;;14.80;10.97;;;;;;;16.27;84.04;101833.19;5030006;28;20187;-77
2021/09/13 06:40:27;;;;;;;13.63;10.10;;;;;;;16.36;83.50;101825.56;5029776;28;20202;-76
2021/09/13 06:42:52;;;;;;;13.50;9.43;;;;;;;16.42;83.09;101831.69;5031026;28;20217;-76
2021/09/13 06:45:23;;;;;;;12.10;9.23;;;;;;;16.43;82.10;101833.44;5030083;28;20748;-77
2021/09/13 06:47:49;;;;;;;13.77;9.00;;;;;;;16.56;82.60;101826.66;5031637;28;20806;-77
2021/09/13 06:50:27;;;;;;;12.63;9.13;;;;;;;16.61;82.25;101837.94;5029737;28;20269;-77
2021/09/13 06:52:54;;;;;;;15.30;9.10;;;;;;;16.65;81.71;101834.53;5030403;28;20298;-76
2021/09/13 06:55:20;;;;;;;13.67;9.00;;;;;;;16.64;81.72;101846.59;5030212;28;20659;-77
2021/09/13 06:57:46;;;;;;;12.27;9.73;;;;;;;16.58;82.21;101849.09;5029435;28;20187;-77
2021/09/13 07:00:14;;;;;;;12.50;9.10;;;;;;;16.50;82.51;101847.28;5031393;28;20232;-76
2021/09/13 07:02:43;;;;;;;11.97;9.03;;;;;;;16.57;82.18;101851.69;5030642;28;20186;-77
2021/09/13 07:05:09;;;;;;;13.50;9.13;;;;;;;16.64;81.86;101863.84;5030490;28;20270;-77
2021/09/13 07:07:36;;;;;;;13.37;8.73;;;;;;;16.69;81.81;101859.56;5030899;28;20205;-76
2021/09/13 07:10:03;;;;;;;14.57;9.07;;;;;;;16.78;81.41;101865.72;5031531;28;20182;-77
2021/09/13 07:12:28;;;;;;;15.67;9.70;;;;;;;16.80;81.24;101866.59;5031148;28;20682;-77
2021/09/13 07:14:54;;;;;;;12.47;8.20;;;;;;;16.95;80.37;101865.91;5030138;28;20194;-76
2021/09/13 07:17:19;;;;;;;13.10;7.73;;;;;;;16.98;80.52;101871.97;5030176;28;20190;-77
2021/09/13 07:19:45;;;;;;;11.37;8.03;;;;;;;16.90;80.44;101877.94;5029720;28;20183;-77
2021/09/13 07:22:11;;;;;;;12.17;6.97;;;;;;;16.97;79.76;101871.94;5031232;28;20854;-77
2021/09/13 07:24:36;;;;;;;12.63;6.83;;;;;;;17.02;79.48;101880.63;5030384;28;20277;-77
2021/09/13 07:27:02;;;;;;;10.03;6.40;;;;;;;17.08;79.12;101876.38;5030262;28;20290;-76
2021/09/13 07:29:27;;;;;;;10.67;6.50;;;;;;;17.14;79.66;101875.56;5031215;28;20175;-77
2021/09/13 07:31:53;;;;;;;12.90;6.00;;;;;;;17.13;79.04;101879.03;5031021;28;20277;-77
2021/09/13 07:34:18;;;;;;;10.53;6.07;;;;;;;17.21;79.05;101883.41;5030773;28;20214;-77
2021/09/13 07:36:43;;;;;;;11.03;6.37;;;;;;;17.31;79.30;101884.38;5030188;28;20293;-77
2021/09/13 07:39:09;;;;;;;11.67;6.30;;;;;;;17.21;78.36;101891.16;5029719;28;20218;-77
2021/09/13 07:41:34;;;;;;;10.70;5.77;;;;;;;17.22;77.88;101885.13;5031320;28;20210;-77
2021/09/13 07:43:59;;;;;;;12.60;5.90;;;;;;;17.15;78.06;101892.84;5021992;28;20191;-76
2021/09/13 07:46:25;;;;;;;11.37;6.73;;;;;;;17.27;78.18;101898.13;5011373;28;20614;-77
2021/09/13 07:48:50;;;;;;;10.97;5.50;;;;;;;17.28;77.82;101905.94;5010525;28;20238;-77
2021/09/13 07:51:16;;;;;;;7.23;5.00;;;;;;;17.22;77.04;101903.25;5010959;28;20203;-77
2021/09/13 07:53:41;;;;;;;10.33;4.53;;;;;;;17.23;76.43;101906.72;5010832;28;20698;-76
2021/09/13 07:56:07;;;;;;;7.40;4.20;;;;;;;17.25;75.32;101908.47;5008839;28;20287;-77
2021/09/13 07:58:32;;;;;;;8.97;4.10;;;;;;;17.35;74.71;101907.69;4993316;28;20191;-77
2021/09/13 08:00:57;;;;;;;11.27;4.17;;;;;;;17.42;75.48;101903.47;5010694;28;20207;-77
2021/09/13 08:03:23;;;;;;;8.90;3.83;;;;;;;17.47;74.90;101906.97;5010468;28;20195;-77
2021/09/13 08:05:48;;;;;;;6.73;2.80;;;;;;;17.47;74.07;101901.78;5009636;28;20202;-76
2021/09/13 08:08:14;;;;;;;7.40;2.97;;;;;;;17.49;73.09;101906.13;5010613;28;20198;-77
2021/09/13 08:10:40;;;;;;;4.27;2.30;;;;;;;17.60;72.58;101911.41;5013375;28;20219;-77
2021/09/13 08:13:05;;;;;;;9.97;2.63;;;;;;;17.65;71.88;101909.72;5013074;28;20734;-77
2021/09/13 08:15:32;;;;;;;7.37;2.50;;;;;;;17.64;71.83;101914.00;5013341;28;20206;-76
2021/09/13 08:17:59;;;;;;;9.53;2.90;;;;;;;17.60;72.15;101911.41;5012976;28;20274;-76
2021/09/13 08:20:25;;;;;;;5.33;2.53;;;;;;;17.48;71.76;101919.94;5014224;28;20211;-77
2021/09/13 08:22:52;;;;;;;6.10;2.47;;;;;;;17.50;70.79;101926.00;5012568;28;20702;-76
2021/09/13 08:25:18;;;;;;;8.87;3.00;;;;;;;17.49;71.43;101924.25;5013219;28;20226;-77
2021/09/13 08:28:00;;;;;;;7.73;2.80;;;;;;;17.59;71.57;101925.22;5012666;28;20171;-77
2021/09/13 08:30:26;;;;;;;6.97;2.30;;;;;;;17.65;70.57;101927.84;5012849;28;20724;-77
2021/09/13 08:32:52;;;;;;;6.57;2.50;;;;;;;17.69;71.19;101927.03;5012999;28;20215;-77
2021/09/13 08:35:18;;;;;;;6.37;2.87;;;;;;;17.77;71.76;101938.31;5012323;28;20671;-77
2021/09/13 08:37:44;;;;;;;6.00;2.33;;;;;;;17.92;71.13;101935.84;5014127;28;20187;-77
2021/09/13 08:40:09;;;;;;;8.87;2.73;;;;;;;17.96;70.55;101938.44;5012517;28;20195;-77
2021/09/13 08:42:49;;;;;;;6.20;2.57;;;;;;;17.93;69.99;101935.84;5013802;28;20171;-76
2021/09/13 08:45:19;;;;;;;6.70;2.40;;;;;;;17.82;69.88;101944.41;5033306;28;20181;-77
2021/09/13 08:48:30;;;;;;;5.03;2.40;;;;;;;17.70;70.03;101949.47;5033109;28;20179;-77
2021/09/13 08:53:01;;;;;;;3.67;2.10;;;;;;;17.64;70.35;101955.47;5032178;28;20340;-77
2021/09/13 08:55:26;;;;;;;6.17;2.30;;;;;;;17.61;70.58;101968.41;5033045;28;20212;-77
2021/09/13 08:57:52;;;;;;;4.63;2.27;;;;;;;17.51;70.31;101968.31;5015994;28;20265;-77
2021/09/13 09:00:19;;;;;;;6.37;2.40;;;;;;;17.41;70.81;101967.34;5033407;28;20218;-77
2021/09/13 09:02:45;;;;;;;7.77;2.87;;;;;;;17.31;70.38;101972.41;5033006;28;20190;-77
2021/09/13 09:05:12;;;;;;;8.27;2.23;;;;;;;17.32;70.33;101967.22;5032335;28;20192;-77
2021/09/13 09:07:54;;;;;;;5.27;2.67;;;;;;;17.33;71.11;101968.09;5032097;28;20222;-77
2021/09/13 09:10:28;;;;;;;8.77;2.40;;;;;;;17.41;70.80;101974.25;5032521;28;20189;-76
2021/09/13 09:13:02;;;;;;;6.67;2.90;;;;;;;17.51;71.07;101971.78;5031985;28;20238;-77
2021/09/13 09:15:29;;;;;;;5.23;2.53;;;;;;;17.57;70.35;101970.94;5032322;28;20542;-77
2021/09/13 09:17:57;;;;;;;7.80;2.50;;;;;;;17.63;70.84;101976.19;5033595;28;20643;-77
2021/09/13 09:20:23;;;;;;;5.00;2.00;;;;;;;17.60;70.52;101977.00;5015162;28;20754;-77
2021/09/13 09:23:03;;;;;;;5.97;2.27;;;;;;;17.60;70.85;101981.34;5032097;28;20197;-77
2021/09/13 09:25:32;;;;;;;7.27;2.40;;;;;;;17.55;70.25;101990.81;5032456;28;20190;-77
2021/09/13 09:28:05;;;;;;;6.10;2.53;;;;;;;17.58;70.07;101993.41;5032049;28;20190;-77
2021/09/13 09:30:46;;;;;;;7.07;2.33;;;;;;;17.69;70.74;101989.22;5016161;28;20694;-77
2021/09/13 09:33:17;;;;;;;5.07;2.30;;;;;;;17.72;71.03;101990.09;5032986;28;20201;-77
2021/09/13 09:35:51;;;;;;;6.57;2.33;;;;;;;17.84;70.17;101992.81;5033289;28;20568;-77
2021/09/13 09:38:30;;;;;;;5.37;2.50;;;;;;;17.98;70.02;101992.91;5032165;28;20197;-77
2021/09/13 09:41:08;;;;;;;6.17;2.50;;;;;;;18.11;70.56;101992.13;5033412;28;20203;-77
2021/09/13 09:43:56;;;;;;;5.20;2.47;;;;;;;18.27;69.61;101994.84;5009770;28;20194;-77
2021/09/13 09:46:41;;;;;;;7.57;2.40;;;;;;;18.44;69.38;101988.06;5012236;28;20259;-76
2021/09/13 09:49:08;;;;;;;7.03;2.47;;;;;;;18.52;68.67;101991.56;5013651;28;20175;-77
2021/09/13 09:51:55;;;;;;;6.23;2.50;;;;;;;18.67;68.87;101988.19;4995555;28;20282;-77
2021/09/13 09:54:25;;;;;;;6.40;2.33;;;;;;;18.85;67.30;101991.75;5012809;28;20277;-77
2021/09/13 09:56:59;;;;;;;4.80;2.20;;;;;;;22.80;57.21;101966.78;5013721;28;20563;-77
2021/09/13 09:59:32;;;;;;;7.33;2.40;;;;;;;20.81;59.98;101967.50;5013965;28;20183;-75
2021/09/13 10:01:57;;;;;;;8.30;2.20;;;;;;;19.90;63.45;101970.31;5013284;28;20214;-77
2021/09/13 10:04:27;;;;;;;7.17;2.10;;;;;;;19.31;63.86;101969.41;5014206;28;20179;-77
2021/09/13 10:06:56;;;;;;;5.63;2.00;;;;;;;18.97;64.95;101973.59;5014257;28;20203;-77
2021/09/13 10:09:23;;;;;;;3.90;1.53;;;;;;;18.89;64.94;101982.22;5014022;28;20237;-77
2021/09/13 10:11:52;;;;;;;4.90;1.80;;;;;;;18.73;65.27;101980.41;5012412;28;20587;-77
2021/09/13 10:14:23;;;;;;;3.87;1.67;;;;;;;18.68;64.37;101984.72;5011903;28;20215;-77
2021/09/13 10:16:49;;;;;;;3.00;1.33;;;;;;;18.82;64.56;101981.34;5013062;28;20182;-77
2021/09/13 10:19:15;;;;;;;4.73;1.67;;;;;;;18.84;64.04;101978.75;5014062;28;20202;-77
2021/09/13 10:21:42;;;;;;;5.30;1.70;;;;;;;19.03;63.11;101971.00;5013009;28;20266;-77
2021/09/13 10:24:12;;;;;;;4.50;1.40;;;;;;;19.11;61.63;101976.25;5016383;28;20178;-76
2021/09/13 10:26:40;;;;;;;3.77;1.33;;;;;;;19.10;61.49;101977.97;5013545;28;20656;-77
2021/09/13 10:29:05;;;;;;;2.63;1.40;;;;;;;19.06;62.08;101976.22;5012393;28;20187;-77
2021/09/13 10:31:45;;;;;;;3.83;1.40;;;;;;;19.28;61.83;101971.97;5010987;28;20265;-77
2021/09/13 10:34:20;;;;;;;4.63;1.77;;;;;;;19.25;61.38;101972.00;5012198;28;20214;-77
2021/09/13 10:37:01;;;;;;;3.97;1.60;;;;;;;19.37;61.84;101970.28;5016238;28;20278;-76
2021/09/13 10:39:53;;;;;;;4.67;1.30;;;;;;;19.40;60.48;101972.03;5016117;28;20195;-77
2021/09/13 10:42:39;;;;;;;2.73;1.10;;;;;;;19.34;59.79;101972.03;5012136;28;20294;-77
2021/09/13 10:45:36;;;;;;;3.93;1.70;;;;;;;19.00;60.28;101972.75;5031729;28;20261;-77
2021/09/13 10:48:08;;;;;;;3.77;1.60;;;;;;;19.10;61.31;101983.16;5037152;28;20186;-77
2021/09/13 10:50:54;;;;;;;4.23;1.60;;;;;;;19.10;60.75;101984.88;5035018;28;20707;-76
2021/09/13 10:53:22;;;;;;;3.70;1.90;;;;;;;19.06;60.66;101984.00;5034548;28;20211;-77
2021/09/13 10:55:59;;;;;;;4.90;1.90;;;;;;;19.19;60.35;101972.81;5030386;28;20198;-77
2021/09/13 10:58:30;;;;;;;4.33;1.50;;;;;;;19.14;59.71;101974.53;5031442;28;20183;-77
2021/09/13 11:00:58;;;;;;;2.53;1.40;;;;;;;19.35;60.32;101976.34;5033953;28;20234;-77
2021/09/13 11:03:23;;;;;;;4.10;1.50;;;;;;;19.40;59.28;101974.63;5032189;28;20643;-77
2021/09/13 11:06:14;;;;;;;3.47;1.83;;;;;;;19.35;59.42;101974.59;5030214;28;20197;-77
2021/09/13 11:08:44;;;;;;;3.43;1.50;;;;;;;19.33;59.78;101973.72;5032357;28;20175;-77
2021/09/13 11:11:09;;;;;;;4.47;1.40;;;;;;;19.26;59.69;101971.97;5031535;28;20260;-77
2021/09/13 11:13:34;;;;;;;2.47;1.30;;;;;;;19.31;59.86;101965.09;5031215;28;20195;-77
2021/09/13 11:16:00;;;;;;;3.23;1.20;;;;;;;19.23;59.21;101969.38;5032106;28;20190;-77
2021/09/13 11:18:35;;;;;;;1.57;1.00;;;;;;;19.23;59.70;101978.91;5030957;28;20210;-77
2021/09/13 11:21:34;;;;;;;4.47;1.10;;;;;;;19.36;58.84;101973.75;5014091;28;20532;-76
2021/09/13 11:24:14;;;;;;;3.53;1.20;;;;;;;19.43;59.69;101972.03;5019978;28;20195;-77
2021/09/13 11:26:58;;;;;;;4.93;1.60;;;;;;;19.36;59.71;101981.53;5030621;28;20178;-77
2021/09/13 11:29:27;;;;;;;2.63;1.03;;;;;;;19.34;59.39;101975.47;5032694;28;20194;-77
2021/09/13 11:31:56;;;;;;;5.80;1.10;;;;;;;19.34;59.60;101972.88;5031983;28;20766;-77
2021/09/13 11:34:43;;;;;;;3.13;1.20;;;;;;;19.32;59.11;101971.13;5030827;28;20202;-77